createdAt,value
2016-02-17T00:00:09.542Z,12.49
2016-02-17T00:01:09.670Z,12.48
2016-02-17T00:02:09.626Z,12.41
2016-02-17T00:03:09.613Z,12.42
2016-02-17T00:04:09.568Z,12.45
2016-02-17T00:05:09.556Z,12.45
2016-02-17T00:06:09.528Z,12.45
2016-02-17T00:07:09.515Z,12.37
2016-02-17T00:08:09.486Z,12.29
2016-02-17T00:09:09.457Z,12.33
2016-02-17T00:10:09.444Z,12.31
2016-02-17T00:11:09.415Z,12.37
2016-02-17T00:12:09.388Z,12.34
2016-02-17T00:13:09.359Z,12.31
2016-02-17T00:14:09.330Z,12.3
2016-02-17T00:15:09.302Z,12.3
2016-02-17T00:16:09.289Z,12.39
2016-02-17T00:17:09.276Z,12.29
2016-02-17T00:18:09.231Z,12.33
2016-02-17T00:19:09.203Z,12.37
2016-02-17T00:20:09.190Z,12.38
2016-02-17T00:21:09.161Z,12.39
2016-02-17T00:22:09.148Z,12.37
2016-02-17T00:23:09.104Z,12.29
2016-02-17T00:24:09.075Z,12.39
2016-02-17T00:25:09.234Z,12.31
2016-02-17T00:26:09.034Z,12.37
2016-02-17T00:27:09.022Z,12.27
2016-02-17T00:28:09.009Z,12.16
2016-02-17T00:29:08.964Z,12.31
2016-02-17T00:30:08.941Z,12.31
2016-02-17T00:31:08.927Z,12.3
2016-02-17T00:32:08.899Z,12.27
2016-02-17T00:33:08.871Z,12.3
2016-02-17T00:34:08.842Z,12.31
2016-02-17T00:35:08.813Z,12.3
2016-02-17T00:36:08.785Z,12.2
2016-02-17T00:37:08.772Z,12.21
2016-02-17T00:38:08.727Z,12.27
2016-02-17T00:39:08.715Z,12.24
2016-02-17T00:40:08.686Z,12.21
2016-02-17T00:41:08.674Z,12.21
2016-02-17T00:42:08.645Z,12.23
2016-02-17T00:43:08.632Z,12.24
2016-02-17T00:44:08.603Z,12.26
2016-02-17T00:45:08.559Z,12.16
2016-02-17T00:46:08.546Z,12.21
2016-02-17T00:47:08.534Z,12.21
2016-02-17T00:48:08.489Z,12.19
2016-02-17T00:49:08.461Z,12.19
2016-02-17T00:50:08.432Z,12.15
2016-02-17T00:51:08.403Z,12.23
2016-02-17T00:52:08.390Z,12.21
2016-02-17T00:53:08.361Z,12.16
2016-02-17T00:54:08.334Z,12.21
2016-02-17T00:55:08.320Z,12.13
2016-02-17T00:56:08.276Z,12.21
2016-02-17T00:57:08.263Z,12.21
2016-02-17T00:58:08.235Z,12.16
2016-02-17T00:59:08.206Z,12.15
2016-02-17T01:00:08.193Z,12.15
2016-02-17T01:01:08.149Z,12.15
2016-02-17T01:02:08.152Z,12.19
2016-02-17T01:03:08.139Z,12.15
2016-02-17T01:04:08.079Z,12.16
2016-02-17T01:05:08.050Z,12.13
2016-02-17T01:06:08.037Z,12.16
2016-02-17T01:07:08.010Z,12.09
2016-02-17T01:08:07.980Z,12.12
2016-02-17T01:09:07.952Z,12.13
2016-02-17T01:10:07.938Z,12.16
2016-02-17T01:11:07.910Z,12.15
2016-02-17T01:12:07.898Z,12.13
2016-02-17T01:13:07.868Z,12.13
2016-02-17T01:14:07.840Z,12.06
2016-02-17T01:15:07.812Z,12.06
2016-02-17T01:16:07.798Z,12.13
2016-02-17T01:17:07.801Z,12.15
2016-02-17T01:18:07.742Z,12.11
2016-02-17T01:19:07.698Z,12.11
2016-02-17T01:20:07.700Z,12.08
2016-02-17T01:21:07.672Z,12.08
2016-02-17T01:22:07.642Z,12.08
2016-02-17T01:23:07.646Z,12.04
2016-02-17T01:24:07.586Z,12.09
2016-02-17T01:25:07.558Z,12.04
2016-02-17T01:26:07.529Z,12.04
2016-02-17T01:27:07.719Z,12.05
2016-02-17T01:28:07.487Z,12.11
2016-02-17T01:29:07.459Z,12.09
2016-02-17T01:30:07.430Z,12.09
2016-02-17T01:31:07.402Z,12.11
2016-02-17T01:32:07.467Z,12.04
2016-02-17T01:33:07.360Z,12.05
2016-02-17T01:34:07.332Z,12.04
2016-02-17T01:35:07.318Z,12.02
2016-02-17T01:36:07.291Z,11.97
2016-02-17T01:37:07.261Z,11.97
2016-02-17T01:38:07.233Z,12.05
2016-02-17T01:39:07.204Z,12.02
2016-02-17T01:40:07.176Z,12.12
2016-02-17T01:41:07.147Z,12.01
2016-02-17T01:42:07.134Z,11.99
2016-02-17T01:43:07.106Z,12.04
2016-02-17T01:44:07.077Z,12.04
2016-02-17T01:45:07.049Z,11.93
2016-02-17T01:46:07.035Z,12.01
2016-02-17T01:47:07.210Z,12.02
2016-02-17T01:48:06.995Z,11.97
2016-02-17T01:49:06.793Z,12.06
2016-02-17T01:50:06.937Z,11.96
2016-02-17T01:51:06.908Z,11.94
2016-02-17T01:52:06.723Z,12.02
2016-02-17T01:53:06.867Z,11.97
2016-02-17T01:54:06.823Z,11.97
2016-02-17T01:55:06.794Z,12.04
2016-02-17T01:56:06.797Z,12.01
2016-02-17T01:57:06.753Z,11.99
2016-02-17T01:58:06.725Z,11.99
2016-02-17T01:59:06.711Z,11.9
2016-02-17T02:00:06.667Z,12.04
2016-02-17T02:01:06.811Z,11.99
2016-02-17T02:02:06.625Z,11.96
2016-02-17T02:03:06.613Z,11.94
2016-02-17T02:04:06.568Z,11.99
2016-02-17T02:05:06.540Z,12.01
2016-02-17T02:06:06.543Z,11.96
2016-02-17T02:07:06.498Z,11.94
2016-02-17T02:08:06.486Z,11.94
2016-02-17T02:09:06.457Z,11.94
2016-02-17T02:10:06.429Z,11.97
2016-02-17T02:11:06.400Z,11.9
2016-02-17T02:12:06.402Z,11.89
2016-02-17T02:13:06.374Z,11.87
2016-02-17T02:14:06.315Z,11.96
2016-02-17T02:15:06.317Z,11.78
2016-02-17T02:16:06.273Z,11.89
2016-02-17T02:17:06.244Z,11.87
2016-02-17T02:18:06.279Z,11.89
2016-02-17T02:19:06.187Z,11.86
2016-02-17T02:20:06.173Z,11.87
2016-02-17T02:21:06.145Z,11.89
2016-02-17T02:22:06.117Z,11.94
2016-02-17T02:23:06.089Z,12.01
2016-02-17T02:24:06.059Z,11.87
2016-02-17T02:25:06.048Z,11.94
2016-02-17T02:26:06.019Z,11.78
2016-02-17T02:27:06.054Z,11.83
2016-02-17T02:28:05.243Z,11.85
2016-02-17T02:29:06.199Z,11.83
2016-02-17T02:30:05.921Z,11.82
2016-02-17T02:31:05.892Z,11.8
2016-02-17T02:32:05.879Z,11.86
2016-02-17T02:33:05.866Z,11.82
2016-02-17T02:34:05.838Z,11.87
2016-02-17T02:35:05.793Z,11.85
2016-02-17T02:36:05.781Z,11.83
2016-02-17T02:37:05.736Z,11.9
2016-02-17T02:38:05.723Z,11.93
2016-02-17T02:39:05.695Z,11.8
2016-02-17T02:40:05.697Z,11.86
2016-02-17T02:41:05.638Z,11.8
2016-02-17T02:42:05.609Z,11.89
2016-02-17T02:43:05.581Z,11.82
2016-02-17T02:44:05.567Z,11.82
2016-02-17T02:45:05.539Z,11.86
2016-02-17T02:46:05.511Z,11.82
2016-02-17T02:47:05.498Z,11.77
2016-02-17T02:48:05.485Z,11.8
2016-02-17T02:49:05.456Z,11.78
2016-02-17T02:50:05.427Z,11.86
2016-02-17T02:51:05.399Z,11.8
2016-02-17T02:52:05.402Z,11.8
2016-02-17T02:53:05.326Z,11.83
2016-02-17T02:54:05.329Z,11.82
2016-02-17T02:55:05.301Z,11.78
2016-02-17T02:56:05.257Z,11.77
2016-02-17T02:57:05.244Z,11.71
2016-02-17T02:58:05.215Z,11.77
2016-02-17T02:59:05.187Z,11.77
2016-02-17T03:00:05.157Z,11.78
2016-02-17T03:01:05.160Z,11.74
2016-02-17T03:02:05.100Z,11.7
2016-02-17T03:03:05.088Z,11.77
2016-02-17T03:04:05.059Z,11.72
2016-02-17T03:05:05.031Z,11.71
2016-02-17T03:06:05.017Z,11.61
2016-02-17T03:07:04.989Z,11.75
2016-02-17T03:08:04.961Z,11.62
2016-02-17T03:09:04.947Z,11.7
2016-02-17T03:10:04.903Z,11.65
2016-02-17T03:11:04.937Z,11.75
2016-02-17T03:12:04.847Z,11.75
2016-02-17T03:13:04.833Z,11.65
2016-02-17T03:14:04.805Z,11.75
2016-02-17T03:15:04.963Z,11.65
2016-02-17T03:16:04.748Z,11.61
2016-02-17T03:17:04.781Z,11.62
2016-02-17T03:18:03.972Z,11.61
2016-02-17T03:19:04.693Z,11.75
2016-02-17T03:20:04.649Z,11.65
2016-02-17T03:21:04.636Z,11.67
2016-02-17T03:22:04.607Z,11.71
2016-02-17T03:23:04.626Z,11.72
2016-02-17T03:24:04.550Z,11.62
2016-02-17T03:25:04.553Z,11.64
2016-02-17T03:26:04.493Z,11.74
2016-02-17T03:27:04.496Z,11.67
2016-02-17T03:28:04.468Z,11.61
2016-02-17T03:29:04.423Z,11.65
2016-02-17T03:30:04.410Z,11.72
2016-02-17T03:31:04.397Z,11.61
2016-02-17T03:32:04.354Z,11.62
2016-02-17T03:33:04.340Z,11.64
2016-02-17T03:34:04.296Z,11.65
2016-02-17T03:35:04.315Z,11.7
2016-02-17T03:36:04.239Z,11.57
2016-02-17T03:37:04.242Z,11.68
2016-02-17T03:38:04.197Z,11.65
2016-02-17T03:39:04.184Z,11.61
2016-02-17T03:40:04.156Z,11.62
2016-02-17T03:41:04.128Z,11.62
2016-02-17T03:42:04.098Z,11.62
2016-02-17T03:43:04.086Z,11.61
2016-02-17T03:44:04.088Z,11.65
2016-02-17T03:45:04.013Z,11.7
2016-02-17T03:46:04.000Z,11.62
2016-02-17T03:47:03.831Z,11.65
2016-02-17T03:48:03.958Z,11.7
2016-02-17T03:49:03.930Z,11.67
2016-02-17T03:50:03.902Z,11.56
2016-02-17T03:51:03.888Z,11.54
2016-02-17T03:52:03.844Z,11.67
2016-02-17T03:53:03.832Z,11.64
2016-02-17T03:54:03.803Z,11.64
2016-02-17T03:55:03.774Z,11.62
2016-02-17T03:56:03.746Z,11.54
2016-02-17T03:57:03.718Z,11.68
2016-02-17T03:58:03.688Z,11.67
2016-02-17T03:59:03.660Z,11.57
2016-02-17T04:00:03.662Z,11.54
2016-02-17T04:01:03.604Z,11.64
2016-02-17T04:02:03.606Z,11.59
2016-02-17T04:03:03.562Z,11.65
2016-02-17T04:04:03.549Z,11.54
2016-02-17T04:05:03.520Z,11.54
2016-02-17T04:06:03.507Z,11.64
2016-02-17T04:07:03.462Z,11.56
2016-02-17T04:08:03.450Z,11.56
2016-02-17T04:09:03.406Z,11.61
2016-02-17T04:10:03.424Z,11.64
2016-02-17T04:11:03.364Z,11.57
2016-02-17T04:12:03.351Z,11.61
2016-02-17T04:13:03.306Z,11.52
2016-02-17T04:14:03.294Z,11.52
2016-02-17T04:15:03.250Z,11.56
2016-02-17T04:16:03.284Z,11.57
2016-02-17T04:17:03.380Z,11.53
2016-02-17T04:18:03.195Z,11.56
2016-02-17T04:19:03.152Z,11.65
2016-02-17T04:20:03.138Z,11.56
2016-02-17T04:21:03.110Z,11.54
2016-02-17T04:22:03.081Z,11.59
2016-02-17T04:23:03.053Z,11.59
2016-02-17T04:24:03.055Z,11.53
2016-02-17T04:25:02.996Z,11.53
2016-02-17T04:26:02.999Z,11.54
2016-02-17T04:27:02.969Z,11.5
2016-02-17T04:28:02.941Z,11.46
2016-02-17T04:29:02.912Z,11.49
2016-02-17T04:30:02.884Z,11.54
2016-02-17T04:31:02.855Z,11.61
2016-02-17T04:32:11.874Z,11.49
2016-02-17T04:33:02.815Z,11.57
2016-02-17T04:34:02.770Z,11.52
2016-02-17T04:35:02.757Z,11.52
2016-02-17T04:36:02.728Z,11.53
2016-02-17T04:37:02.700Z,11.5
2016-02-17T04:38:02.671Z,11.47
2016-02-17T04:39:02.674Z,11.43
2016-02-17T04:40:02.614Z,11.5
2016-02-17T04:41:02.617Z,11.49
2016-02-17T04:42:02.744Z,11.46
2016-02-17T04:43:02.559Z,11.52
2016-02-17T04:44:02.515Z,11.57
2016-02-17T04:45:02.517Z,11.53
2016-02-17T04:46:02.475Z,11.54
2016-02-17T04:47:02.461Z,11.46
2016-02-17T04:48:02.417Z,11.46
2016-02-17T04:49:02.404Z,11.46
2016-02-17T04:50:02.360Z,11.46
2016-02-17T04:51:02.363Z,11.43
2016-02-17T04:52:02.303Z,11.5
2016-02-17T04:53:02.336Z,11.43
2016-02-17T04:54:02.277Z,11.44
2016-02-17T04:55:02.264Z,11.47
2016-02-17T04:56:02.219Z,11.53
2016-02-17T04:57:02.207Z,11.54
2016-02-17T04:58:02.193Z,11.53
2016-02-17T04:59:02.180Z,11.53
2016-02-17T05:00:02.105Z,11.46
2016-02-17T05:01:02.124Z,11.44
2016-02-17T05:02:02.064Z,11.43
2016-02-17T05:03:02.035Z,11.39
2016-02-17T05:04:02.023Z,11.36
2016-02-17T05:05:01.993Z,11.35
2016-02-17T05:06:01.965Z,11.46
2016-02-17T05:07:01.937Z,11.46
2016-02-17T05:08:01.924Z,11.43
2016-02-17T05:09:01.896Z,11.43
2016-02-17T05:10:01.851Z,11.44
2016-02-17T05:11:01.854Z,11.34
2016-02-17T05:12:01.809Z,11.38
2016-02-17T05:13:01.812Z,11.38
2016-02-17T05:14:02.017Z,11.36
2016-02-17T05:15:01.787Z,11.39
2016-02-17T05:16:01.711Z,11.36
2016-02-17T05:17:01.714Z,11.43
2016-02-17T05:18:01.654Z,11.41
2016-02-17T05:19:01.781Z,11.44
2016-02-17T05:20:01.597Z,11.36
2016-02-17T05:21:01.568Z,11.36
2016-02-17T05:22:01.555Z,11.36
2016-02-17T05:23:01.527Z,11.36
2016-02-17T05:24:01.514Z,11.36
2016-02-17T05:25:01.470Z,11.41
2016-02-17T05:26:01.457Z,11.39
2016-02-17T05:27:01.413Z,11.43
2016-02-17T05:28:01.399Z,11.27
2016-02-17T05:29:01.371Z,11.39
2016-02-17T05:30:01.358Z,11.39
2016-02-17T05:31:01.330Z,11.43
2016-02-17T05:32:01.316Z,11.41
2016-02-17T05:33:01.272Z,11.36
2016-02-17T05:34:01.259Z,11.39
2016-02-17T05:35:01.246Z,11.38
2016-02-17T05:36:01.234Z,11.46
2016-02-17T05:37:01.158Z,11.43
2016-02-17T05:38:01.161Z,11.29
2016-02-17T05:39:01.117Z,11.28
2016-02-17T05:40:01.088Z,11.29
2016-02-17T05:41:01.090Z,11.28
2016-02-17T05:42:01.031Z,11.28
2016-02-17T05:43:00.861Z,11.34
2016-02-17T05:44:00.990Z,11.25
2016-02-17T05:45:00.961Z,11.31
2016-02-17T05:46:00.964Z,11.27
2016-02-17T05:47:00.920Z,11.31
2016-02-17T05:48:00.906Z,11.36
2016-02-17T05:49:00.862Z,11.31
2016-02-17T05:50:00.833Z,11.34
2016-02-17T05:51:00.820Z,11.28
2016-02-17T05:52:00.808Z,11.25
2016-02-17T05:53:00.764Z,11.25
2016-02-17T05:54:00.751Z,11.25
2016-02-17T05:55:00.722Z,11.29
2016-02-17T05:56:00.678Z,11.25
2016-02-17T05:57:00.665Z,11.28
2016-02-17T05:58:00.636Z,11.32
2016-02-17T05:59:00.623Z,11.31
2016-02-17T06:00:00.580Z,11.29
2016-02-17T06:01:00.567Z,11.29
2016-02-17T06:02:00.538Z,11.27
2016-02-17T06:03:00.524Z,11.31
2016-02-17T06:04:00.480Z,11.27
2016-02-17T06:05:00.577Z,11.25
2016-02-17T06:06:00.423Z,11.27
2016-02-17T06:07:00.411Z,11.27
2016-02-17T06:08:00.382Z,11.31
2016-02-17T06:09:00.369Z,11.31
2016-02-17T06:10:00.325Z,11.24
2016-02-17T06:11:00.328Z,11.29
2016-02-17T06:12:00.299Z,11.25
2016-02-17T06:13:00.254Z,11.28
2016-02-17T06:14:00.227Z,11.31
2016-02-17T06:15:00.417Z,11.2
2016-02-17T06:16:00.434Z,11.16
2016-02-17T06:17:00.156Z,11.28
2016-02-17T06:18:00.128Z,11.28
2016-02-17T06:19:00.115Z,11.28
2016-02-17T06:20:00.071Z,11.27
2016-02-17T06:21:00.058Z,11.32
2016-02-17T06:22:00.028Z,11.28
2016-02-17T06:23:00.001Z,11.24
2016-02-17T06:23:59.973Z,11.24
2016-02-17T06:24:59.944Z,11.32
2016-02-17T06:25:59.915Z,11.27
2016-02-17T06:26:59.902Z,11.19
2016-02-17T06:27:59.874Z,11.24
2016-02-17T06:28:59.844Z,11.21
2016-02-17T06:29:59.816Z,11.2
2016-02-17T06:30:59.788Z,11.24
2016-02-17T06:31:59.760Z,11.32
2016-02-17T06:32:59.731Z,11.24
2016-02-17T06:33:59.749Z,11.28
2016-02-17T06:34:59.689Z,11.27
2016-02-17T06:35:59.660Z,11.2
2016-02-17T06:36:59.648Z,11.27
2016-02-17T06:37:59.603Z,11.27
2016-02-17T06:38:59.607Z,11.24
2016-02-17T06:39:59.563Z,11.2
2016-02-17T06:40:59.534Z,11.21
2016-02-17T06:41:59.521Z,11.27
2016-02-17T06:42:59.335Z,11.24
2016-02-17T06:43:59.463Z,11.25
2016-02-17T06:44:59.434Z,11.17
2016-02-17T06:45:59.406Z,11.2
2016-02-17T06:46:59.394Z,11.2
2016-02-17T06:47:59.396Z,11.27
2016-02-17T06:48:59.321Z,11.25
2016-02-17T06:49:59.323Z,11.24
2016-02-17T06:50:59.295Z,11.21
2016-02-17T06:51:59.267Z,11.28
2016-02-17T06:52:59.237Z,11.28
2016-02-17T06:53:59.239Z,11.29
2016-02-17T06:54:59.181Z,11.19
2016-02-17T06:55:59.168Z,11.25
2016-02-17T06:56:59.123Z,11.27
2016-02-17T06:57:59.110Z,11.28
2016-02-17T06:58:59.082Z,11.2
2016-02-17T06:59:59.053Z,11.29
2016-02-17T07:00:59.040Z,11.27
2016-02-17T07:01:59.247Z,11.2
2016-02-17T07:02:59.000Z,11.24
2016-02-17T07:03:58.985Z,11.28
2016-02-17T07:04:58.926Z,11.28
2016-02-17T07:05:58.913Z,11.25
2016-02-17T07:06:58.916Z,11.27
2016-02-17T07:07:58.857Z,11.27
2016-02-17T07:08:58.828Z,11.27
2016-02-17T07:09:58.658Z,11.32
2016-02-17T07:10:58.786Z,11.31
2016-02-17T07:11:58.758Z,11.31
2016-02-17T07:12:58.745Z,11.31
2016-02-17T07:13:58.701Z,11.31
2016-02-17T07:14:58.671Z,11.31
2016-02-17T07:15:58.660Z,11.27
2016-02-17T07:16:58.615Z,11.28
2016-02-17T07:17:58.586Z,11.28
2016-02-17T07:18:58.573Z,11.27
2016-02-17T07:19:58.545Z,11.21
2016-02-17T07:20:58.562Z,11.27
2016-02-17T07:21:58.582Z,11.28
2016-02-17T07:22:58.474Z,11.31
2016-02-17T07:23:58.446Z,11.31
2016-02-17T07:24:58.433Z,11.31
2016-02-17T07:25:58.389Z,11.28
2016-02-17T07:26:58.408Z,11.28
2016-02-17T07:27:58.361Z,11.27
2016-02-17T07:28:58.316Z,11.29
2016-02-17T07:29:58.288Z,11.27
2016-02-17T07:30:58.275Z,11.28
2016-02-17T07:31:58.230Z,11.29
2016-02-17T07:32:58.218Z,11.25
2016-02-17T07:33:58.189Z,11.28
2016-02-17T07:34:58.192Z,11.28
2016-02-17T07:35:58.132Z,11.24
2016-02-17T07:36:58.119Z,11.25
2016-02-17T07:37:58.091Z,11.31
2016-02-17T07:38:58.046Z,11.32
2016-02-17T07:39:58.049Z,11.28
2016-02-17T07:40:58.036Z,11.28
2016-02-17T07:41:57.977Z,11.34
2016-02-17T07:42:57.948Z,11.28
2016-02-17T07:43:57.951Z,11.34
2016-02-17T07:44:57.907Z,11.32
2016-02-17T07:45:57.877Z,11.35
2016-02-17T07:46:57.864Z,11.21
2016-02-17T07:47:57.837Z,11.34
2016-02-17T07:48:57.792Z,11.32
2016-02-17T07:49:57.776Z,11.36
2016-02-17T07:50:57.745Z,11.32
2016-02-17T07:51:57.686Z,11.31
2016-02-17T07:52:57.640Z,11.36
2016-02-17T07:53:57.627Z,11.34
2016-02-17T07:54:57.568Z,11.34
2016-02-17T07:55:57.533Z,11.36
2016-02-17T07:56:57.500Z,11.36
2016-02-17T07:57:57.481Z,11.32
2016-02-17T07:58:57.462Z,11.32
2016-02-17T07:59:57.428Z,11.29
2016-02-17T08:00:57.382Z,11.35
2016-02-17T08:01:57.367Z,11.38
2016-02-17T08:02:57.369Z,11.34
2016-02-17T08:03:57.541Z,11.31
2016-02-17T08:04:57.293Z,11.38
2016-02-17T08:05:57.294Z,11.39
2016-02-17T08:06:57.218Z,11.41
2016-02-17T08:07:57.220Z,11.38
2016-02-17T08:08:57.222Z,11.41
2016-02-17T08:09:57.146Z,11.52
2016-02-17T08:10:57.132Z,11.44
2016-02-17T08:11:57.103Z,11.54
2016-02-17T08:12:57.137Z,11.57
2016-02-17T08:13:57.061Z,11.65
2016-02-17T08:14:57.032Z,11.57
2016-02-17T08:15:57.003Z,11.53
2016-02-17T08:16:56.958Z,11.56
2016-02-17T08:17:56.947Z,11.54
2016-02-17T08:18:56.918Z,11.56
2016-02-17T08:19:56.889Z,11.54
2016-02-17T08:20:56.876Z,11.59
2016-02-17T08:21:56.847Z,11.54
2016-02-17T08:22:56.819Z,11.52
2016-02-17T08:23:56.790Z,11.53
2016-02-17T08:24:56.778Z,11.53
2016-02-17T08:25:56.749Z,11.53
2016-02-17T08:26:56.705Z,11.52
2016-02-17T08:27:56.708Z,11.53
2016-02-17T08:28:56.680Z,11.54
2016-02-17T08:29:56.635Z,11.53
2016-02-17T08:30:56.607Z,11.61
2016-02-17T08:31:56.610Z,11.54
2016-02-17T08:32:56.581Z,11.59
2016-02-17T08:33:56.551Z,11.52
2016-02-17T08:34:56.524Z,11.61
2016-02-17T08:35:56.479Z,11.56
2016-02-17T08:36:56.467Z,11.56
2016-02-17T08:37:56.422Z,11.56
2016-02-17T08:38:56.409Z,11.57
2016-02-17T08:39:56.381Z,11.56
2016-02-17T08:40:56.368Z,11.64
2016-02-17T08:41:56.323Z,11.64
2016-02-17T08:42:56.295Z,11.56
2016-02-17T08:43:56.282Z,11.65
2016-02-17T08:44:56.270Z,11.61
2016-02-17T08:45:56.226Z,11.62
2016-02-17T08:46:56.197Z,11.49
2016-02-17T08:47:56.184Z,11.67
2016-02-17T08:48:56.140Z,11.53
2016-02-17T08:49:56.127Z,11.61
2016-02-17T08:50:56.114Z,11.56
2016-02-17T08:51:56.069Z,11.67
2016-02-17T08:52:56.056Z,11.67
2016-02-17T08:53:56.027Z,11.65
2016-02-17T08:54:56.030Z,11.5
2016-02-17T08:55:55.971Z,11.61
2016-02-17T08:56:55.958Z,11.56
2016-02-17T08:57:55.945Z,11.68
2016-02-17T08:58:55.901Z,11.62
2016-02-17T08:59:55.872Z,11.68
2016-02-17T09:00:55.859Z,11.62
2016-02-17T09:01:55.815Z,11.68
2016-02-17T09:02:55.802Z,11.65
2016-02-17T09:03:55.790Z,11.62
2016-02-17T09:04:55.761Z,11.67
2016-02-17T09:05:55.951Z,11.68
2016-02-17T09:06:55.704Z,11.64
2016-02-17T09:07:55.659Z,11.67
2016-02-17T09:08:55.646Z,11.62
2016-02-17T09:09:55.649Z,11.57
2016-02-17T09:10:55.589Z,11.72
2016-02-17T09:11:55.561Z,11.65
2016-02-17T09:12:55.578Z,11.64
2016-02-17T09:13:55.520Z,11.65
2016-02-17T09:14:55.507Z,11.74
2016-02-17T09:15:55.478Z,11.65
2016-02-17T09:16:55.450Z,11.59
2016-02-17T09:17:55.420Z,11.59
2016-02-17T09:18:55.392Z,11.62
2016-02-17T09:19:55.394Z,11.67
2016-02-17T09:20:55.350Z,11.67
2016-02-17T09:21:55.306Z,11.68
2016-02-17T09:22:55.293Z,11.68
2016-02-17T09:23:55.359Z,11.65
2016-02-17T09:24:55.252Z,11.71
2016-02-17T09:25:55.224Z,11.71
2016-02-17T09:26:55.179Z,11.68
2016-02-17T09:27:55.182Z,11.7
2016-02-17T09:28:55.137Z,11.67
2016-02-17T09:29:55.125Z,11.78
2016-02-17T09:30:55.096Z,11.56
2016-02-17T09:31:55.083Z,11.68
2016-02-17T09:32:55.038Z,11.75
2016-02-17T09:33:55.010Z,11.75
2016-02-17T09:34:54.998Z,11.65
2016-02-17T09:35:54.968Z,11.77
2016-02-17T09:36:54.941Z,11.75
2016-02-17T09:37:54.928Z,11.62
2016-02-17T09:38:54.899Z,11.74
2016-02-17T09:39:54.871Z,11.8
2016-02-17T09:40:54.842Z,11.78
2016-02-17T09:41:54.860Z,11.75
2016-02-17T09:42:54.785Z,11.72
2016-02-17T09:43:54.772Z,11.71
2016-02-17T09:44:54.743Z,11.78
2016-02-17T09:45:54.730Z,11.74
2016-02-17T09:46:54.686Z,11.68
2016-02-17T09:47:54.689Z,11.78
2016-02-17T09:48:54.629Z,11.77
2016-02-17T09:49:54.631Z,11.78
2016-02-17T09:50:54.587Z,11.74
2016-02-17T09:51:54.559Z,11.77
2016-02-17T09:52:54.547Z,11.75
2016-02-17T09:53:54.517Z,11.78
2016-02-17T09:54:54.489Z,11.8
2016-02-17T09:55:54.491Z,11.8
2016-02-17T09:56:54.619Z,11.77
2016-02-17T09:57:54.435Z,11.77
2016-02-17T09:58:54.391Z,11.82
2016-02-17T09:59:54.362Z,11.77
2016-02-17T10:00:54.333Z,11.86
2016-02-17T10:01:54.305Z,11.78
2016-02-17T10:02:54.339Z,11.9
2016-02-17T10:03:54.263Z,11.83
2016-02-17T10:04:54.234Z,11.85
2016-02-17T10:05:54.252Z,11.8
2016-02-17T10:06:54.193Z,11.86
2016-02-17T10:07:54.180Z,11.8
2016-02-17T10:08:54.151Z,11.89
2016-02-17T10:09:54.107Z,11.78
2016-02-17T10:10:54.095Z,11.85
2016-02-17T10:11:54.065Z,11.93
2016-02-17T10:12:54.037Z,11.86
2016-02-17T10:13:54.009Z,11.87
2016-02-17T10:14:53.980Z,11.77
2016-02-17T10:15:53.952Z,11.8
2016-02-17T10:16:53.767Z,11.82
2016-02-17T10:17:53.973Z,11.87
2016-02-17T10:18:53.897Z,11.86
2016-02-17T10:19:53.869Z,11.85
2016-02-17T10:20:53.856Z,11.83
2016-02-17T10:21:53.827Z,11.93
2016-02-17T10:22:53.783Z,11.9
2016-02-17T10:23:53.755Z,11.86
2016-02-17T10:24:53.725Z,11.83
2016-02-17T10:25:53.713Z,11.85
2016-02-17T10:26:53.700Z,11.87
2016-02-17T10:27:53.656Z,11.96
2016-02-17T10:28:53.627Z,11.85
2016-02-17T10:29:53.614Z,11.87
2016-02-17T10:30:53.602Z,11.96
2016-02-17T10:31:53.620Z,11.96
2016-02-17T10:32:53.529Z,11.99
2016-02-17T10:33:53.532Z,11.97
2016-02-17T10:34:53.488Z,11.9
2016-02-17T10:35:53.458Z,11.9
2016-02-17T10:36:53.430Z,11.96
2016-02-17T10:37:53.418Z,11.93
2016-02-17T10:38:53.374Z,11.86
2016-02-17T10:39:53.377Z,11.96
2016-02-17T10:40:53.347Z,12.04
2016-02-17T10:41:53.304Z,11.89
2016-02-17T10:42:53.510Z,11.96
2016-02-17T10:43:54.281Z,11.93
2016-02-17T10:44:53.787Z,11.94
2016-02-17T10:45:53.196Z,11.94
2016-02-17T10:46:53.305Z,11.94
2016-02-17T10:47:54.925Z,11.99
2016-02-17T10:48:53.131Z,12.01
2016-02-17T10:49:53.118Z,11.99
2016-02-17T10:50:53.106Z,12.02
2016-02-17T10:51:53.061Z,11.94
2016-02-17T10:52:53.236Z,12.02
2016-02-17T10:53:53.005Z,12.02
2016-02-17T10:54:52.976Z,12.02
2016-02-17T10:55:52.963Z,12.05
2016-02-17T10:56:52.929Z,12.04
2016-02-17T10:57:52.900Z,12.01
2016-02-17T10:58:53.105Z,12.02
2016-02-17T10:59:52.874Z,12.05
2016-02-17T11:00:52.846Z,12.01
2016-02-17T11:01:52.817Z,12.11
2016-02-17T11:02:52.788Z,12.06
2016-02-17T11:03:52.776Z,12.06
2016-02-17T11:04:52.779Z,12.13
2016-02-17T11:05:51.812Z,12.09
2016-02-17T11:06:52.721Z,12.09
2016-02-17T11:07:52.662Z,12.21
2016-02-17T11:08:52.867Z,12.19
2016-02-17T11:09:52.871Z,12.13
2016-02-17T11:10:52.717Z,12.11
2016-02-17T11:11:52.579Z,12.16
2016-02-17T11:12:52.675Z,12.24
2016-02-17T11:13:52.506Z,12.31
2016-02-17T11:14:52.493Z,12.39
2016-02-17T11:15:52.981Z,12.37
2016-02-17T11:16:52.452Z,12.37
2016-02-17T11:17:52.423Z,12.34
2016-02-17T11:18:52.426Z,12.33
2016-02-17T11:19:52.366Z,12.3
2016-02-17T11:20:52.337Z,12.33
2016-02-17T11:21:52.372Z,12.33
2016-02-17T11:22:52.281Z,12.27
2016-02-17T11:23:52.267Z,12.37
2016-02-17T11:24:52.255Z,12.34
2016-02-17T11:25:52.211Z,12.3
2016-02-17T11:26:52.197Z,12.34
2016-02-17T11:27:52.200Z,12.38
2016-02-17T11:28:52.141Z,12.26
2016-02-17T11:29:52.112Z,12.38
2016-02-17T11:30:52.114Z,12.42
2016-02-17T11:31:52.070Z,12.42
2016-02-17T11:32:52.042Z,12.42
2016-02-17T11:33:52.045Z,12.44
2016-02-17T11:34:52.016Z,12.46
2016-02-17T11:35:51.972Z,12.46
2016-02-17T11:36:51.958Z,12.39
2016-02-17T11:37:52.008Z,12.54
2016-02-17T11:38:51.901Z,12.42
2016-02-17T11:39:51.904Z,12.46
2016-02-17T11:40:51.860Z,12.48
2016-02-17T11:41:51.676Z,12.42
2016-02-17T11:42:51.804Z,12.48
2016-02-17T11:43:51.806Z,12.54
2016-02-17T11:44:52.043Z,12.48
2016-02-17T11:45:51.746Z,12.46
2016-02-17T11:46:51.702Z,12.59
2016-02-17T11:47:51.705Z,12.6
2016-02-17T11:48:51.677Z,12.56
2016-02-17T11:49:51.741Z,12.6
2016-02-17T11:50:51.603Z,12.56
2016-02-17T11:51:51.607Z,12.67
2016-02-17T11:52:51.562Z,12.66
2016-02-17T11:53:51.534Z,12.7
2016-02-17T11:54:51.521Z,12.78
2016-02-17T11:55:51.492Z,12.62
2016-02-17T11:56:51.479Z,12.64
2016-02-17T11:57:51.435Z,12.67
2016-02-17T11:58:51.422Z,12.7
2016-02-17T11:59:51.254Z,12.74
2016-02-17T12:00:51.209Z,12.75
2016-02-17T12:01:51.336Z,12.79
2016-02-17T12:02:51.434Z,12.87
2016-02-17T12:03:51.295Z,12.85
2016-02-17T12:04:51.349Z,12.92
2016-02-17T12:05:51.275Z,12.93
2016-02-17T12:06:51.261Z,12.92
2016-02-17T12:07:51.216Z,12.89
2016-02-17T12:08:51.219Z,12.89
2016-02-17T12:09:51.160Z,13.02
2016-02-17T12:10:51.147Z,13.02
2016-02-17T12:11:51.118Z,13.03
2016-02-17T12:12:51.090Z,13.03
2016-02-17T12:13:51.061Z,13.03
2016-02-17T12:14:51.064Z,13.11
2016-02-17T12:15:51.035Z,13.03
2016-02-17T12:16:50.991Z,13.07
2016-02-17T12:17:50.962Z,13.04
2016-02-17T12:18:50.950Z,13.07
2016-02-17T12:19:50.952Z,13.15
2016-02-17T12:20:50.923Z,13.14
2016-02-17T12:21:50.146Z,13.18
2016-02-17T12:22:50.882Z,13.2
2016-02-17T12:23:50.823Z,13.24
2016-02-17T12:24:50.809Z,13.25
2016-02-17T12:25:50.796Z,13.24
2016-02-17T12:26:50.753Z,13.3
2016-02-17T12:27:50.740Z,13.29
2016-02-17T12:28:50.711Z,13.36
2016-02-17T12:29:50.697Z,13.4
2016-02-17T12:30:50.670Z,13.4
2016-02-17T12:31:50.641Z,13.47
2016-02-17T12:32:50.628Z,13.46
2016-02-17T12:33:50.615Z,13.52
2016-02-17T12:34:50.570Z,13.54
2016-02-17T12:35:50.558Z,13.58
2016-02-17T12:36:50.545Z,13.56
2016-02-17T12:37:50.500Z,13.58
2016-02-17T12:38:50.472Z,13.59
2016-02-17T12:39:50.459Z,13.69
2016-02-17T12:40:50.431Z,13.76
2016-02-17T12:41:50.402Z,13.74
2016-02-17T12:42:50.389Z,13.74
2016-02-17T12:43:50.377Z,13.74
2016-02-17T12:44:50.347Z,13.88
2016-02-17T12:45:50.647Z,13.92
2016-02-17T12:46:50.291Z,13.88
2016-02-17T12:47:50.277Z,13.92
2016-02-17T12:48:50.265Z,14.01
2016-02-17T12:49:50.252Z,14.04
2016-02-17T12:50:50.207Z,14.06
2016-02-17T12:51:50.179Z,14.12
2016-02-17T12:52:50.166Z,14.19
2016-02-17T12:53:50.137Z,14.21